»·PEaware :: QXE1 KSBA-KLAX

QXE1 :: KSBA-KLAX

FLIGHT INFORMATION

Flight Status: Arrived
Operator:
Horizon Air
More flights by this operator :: More flights under this callsign
Pilot: Jack B. (5846)
Aircraft: Unknown
(DHC8)
More flights by this aircraft type
Origin: KSBA Santa Barbara Mun
United States
Destination: KLAX Los Angeles Intl
United States
More flights between these airports :: More routes between these airports
Route: KWANG VTU V299 SADDE V107 SMO
File this flight plan on PilotEdge
Remarks: / I
Altitude:
(Current/Filed)
100ft
Speed:
(Current/Filed)
260kts
Departed: 19-Jan-15 01:52 PM
Arrived: 19-Jan-15 02:24 PM
Distance/Time
Traveled:
76nm/0:32
Distance/Time
To Go:
Arrived

Flight Plot

Page will automatically refresh every two minutes.


Map Options




Map Legend


Flown Route
Filed Route
Departure Airport
Arrival Airport
Navaid (VOR, NDB)
Fix

Horizontal Profiles

Position Reports

Time Latitude Longitude Heading Altitude Ground
Speed
19-Jan-15 13:18 34.425655 -119.836724 189 13ft 0kts
19-Jan-15 13:19 34.425655 -119.836724 189 13ft 0kts
19-Jan-15 13:20 34.425655 -119.836724 189 13ft 0kts
19-Jan-15 13:21 34.425655 -119.836724 189 13ft 0kts
19-Jan-15 13:22 34.425655 -119.836724 189 13ft 0kts
19-Jan-15 13:23 34.425655 -119.836724 189 13ft 0kts
19-Jan-15 13:24 34.425655 -119.836724 189 13ft 0kts
19-Jan-15 13:25 34.425655 -119.836724 189 13ft 0kts
19-Jan-15 13:26 34.425655 -119.836724 189 13ft 0kts
19-Jan-15 13:27 34.425655 -119.836724 189 13ft 0kts
19-Jan-15 13:28 34.425655 -119.836724 189 13ft 0kts
19-Jan-15 13:29 34.425655 -119.836724 189 13ft 0kts
19-Jan-15 13:30 34.425655 -119.836724 189 13ft 0kts
19-Jan-15 13:31 34.425655 -119.836724 189 13ft 0kts
19-Jan-15 13:32 34.425655 -119.836724 189 13ft 0kts
19-Jan-15 13:33 34.425655 -119.836724 189 13ft 0kts
19-Jan-15 13:34 34.425655 -119.836724 189 13ft 0kts
19-Jan-15 13:35 34.425655 -119.836724 189 13ft 0kts
19-Jan-15 13:36 34.426031 -119.836611 231 13ft 0kts
19-Jan-15 13:37 34.426031 -119.836611 231 13ft 0kts
19-Jan-15 13:38 34.426031 -119.836611 231 13ft 0kts
19-Jan-15 13:39 34.426031 -119.836611 231 13ft 0kts
19-Jan-15 13:40 34.426031 -119.836611 231 13ft 0kts
19-Jan-15 13:41 34.426031 -119.836611 231 13ft 0kts
19-Jan-15 13:42 34.426031 -119.836611 231 13ft 0kts
19-Jan-15 13:43 34.426031 -119.836611 231 13ft 0kts
19-Jan-15 13:44 34.426236 -119.837184 334 13ft 0kts
19-Jan-15 13:45 34.426495 -119.835311 87 13ft 14kts
19-Jan-15 13:46 34.426919 -119.834659 358 13ft 7kts
19-Jan-15 13:47 34.427377 -119.854986 270 512ft 174kts
19-Jan-15 13:48 34.429014 -119.916788 270 2606ft 259kts
19-Jan-15 13:49 34.429368 -119.999086 276 5898ft 269kts
19-Jan-15 13:50 34.388030 -120.064886 191 7939ft 296kts
19-Jan-15 13:51 34.347749 -120.017136 86 8760ft 243kts
19-Jan-15 13:52 34.355217 -119.928475 86 10754ft 304kts
19-Jan-15 13:53 34.363527 -119.823551 87 11497ft 359kts
19-Jan-15 13:54 34.368936 -119.707532 101 11032ft 369kts
19-Jan-15 13:55 34.336723 -119.594228 115 11010ft 369kts
19-Jan-15 13:56 34.295092 -119.482883 118 11015ft 375kts
19-Jan-15 13:57 34.254020 -119.383958 117 11015ft 380kts
19-Jan-15 13:58 34.213794 -119.287415 117 11015ft 381kts
19-Jan-15 13:59 34.182245 -119.211849 118 11015ft 381kts
19-Jan-15 14:00 34.138967 -119.108888 118 9931ft 376kts
19-Jan-15 14:01 34.108495 -119.027851 109 7842ft 252kts
19-Jan-15 14:02 34.087380 -118.947827 109 7026ft 238kts
19-Jan-15 14:03 34.069686 -118.881013 109 7039ft 236kts
19-Jan-15 14:04 34.051147 -118.810919 110 7035ft 239kts
19-Jan-15 14:05 34.036280 -118.737273 98 7035ft 251kts
19-Jan-15 14:06 34.029010 -118.660581 98 7031ft 257kts
19-Jan-15 14:07 34.022446 -118.590647 99 7046ft 258kts
19-Jan-15 14:08 34.016062 -118.523749 98 6009ft 249kts
19-Jan-15 14:09 34.011588 -118.475287 98 4839ft 244kts
19-Jan-15 14:10 34.013555 -118.436841 84 4098ft 231kts
19-Jan-15 14:11 34.016271 -118.404692 84 4048ft 229kts
19-Jan-15 14:12 34.017650 -118.371328 101 4023ft 244kts
19-Jan-15 14:13 34.003309 -118.354803 185 2907ft 173kts
19-Jan-15 14:14 33.987943 -118.359844 207 2292ft 112kts
19-Jan-15 14:15 33.977060 -118.366808 212 1968ft 95kts
19-Jan-15 14:16 33.964536 -118.376831 218 1256ft 96kts
19-Jan-15 14:17 33.953519 -118.391656 251 430ft 92kts
19-Jan-15 14:18 33.950795 -118.415007 261 121ft 43kts
19-Jan-15 14:19 33.950055 -118.417987 164 119ft 1kts
19-Jan-15 14:20 33.948991 -118.416122 139 121ft 13kts
19-Jan-15 14:21 33.948193 -118.414775 112 122ft 0kts

Navigation Log

Ident Type
Flight plan parsing failed, navigation log unavailable